sensor_id;sensor_type;location;lat;lon;timestamp;P1;durP1;ratioP1;P2;durP2;ratioP2
12663;SDS011;6396;58.490;15.528;2023-04-15T00:00:48;16.23;;;7.63;;
12663;SDS011;6396;58.490;15.528;2023-04-15T00:03:16;14.27;;;7.73;;
12663;SDS011;6396;58.490;15.528;2023-04-15T00:05:43;14.73;;;7.23;;
12663;SDS011;6396;58.490;15.528;2023-04-15T00:08:10;12.20;;;7.00;;
12663;SDS011;6396;58.490;15.528;2023-04-15T00:10:38;13.97;;;7.33;;
12663;SDS011;6396;58.490;15.528;2023-04-15T00:13:08;11.70;;;7.07;;
12663;SDS011;6396;58.490;15.528;2023-04-15T00:15:34;13.00;;;7.00;;
12663;SDS011;6396;58.490;15.528;2023-04-15T00:18:02;11.87;;;6.50;;
12663;SDS011;6396;58.490;15.528;2023-04-15T00:20:29;11.97;;;6.93;;
12663;SDS011;6396;58.490;15.528;2023-04-15T00:22:55;11.97;;;6.17;;
12663;SDS011;6396;58.490;15.528;2023-04-15T00:25:23;14.97;;;6.80;;
12663;SDS011;6396;58.490;15.528;2023-04-15T00:27:51;12.07;;;6.20;;
12663;SDS011;6396;58.490;15.528;2023-04-15T00:30:18;12.03;;;6.77;;
12663;SDS011;6396;58.490;15.528;2023-04-15T00:32:45;12.63;;;7.00;;
12663;SDS011;6396;58.490;15.528;2023-04-15T00:35:13;14.13;;;7.40;;
12663;SDS011;6396;58.490;15.528;2023-04-15T00:37:39;14.27;;;6.80;;
12663;SDS011;6396;58.490;15.528;2023-04-15T00:40:07;12.33;;;6.97;;
12663;SDS011;6396;58.490;15.528;2023-04-15T00:42:38;10.93;;;6.00;;
12663;SDS011;6396;58.490;15.528;2023-04-15T00:45:06;14.97;;;7.43;;
12663;SDS011;6396;58.490;15.528;2023-04-15T00:47:34;13.00;;;6.60;;
12663;SDS011;6396;58.490;15.528;2023-04-15T00:50:03;14.87;;;6.73;;
12663;SDS011;6396;58.490;15.528;2023-04-15T00:52:30;10.67;;;6.70;;
12663;SDS011;6396;58.490;15.528;2023-04-15T00:54:57;12.23;;;6.13;;
12663;SDS011;6396;58.490;15.528;2023-04-15T00:57:24;11.60;;;6.37;;
12663;SDS011;6396;58.490;15.528;2023-04-15T00:59:51;11.93;;;6.97;;
12663;SDS011;6396;58.490;15.528;2023-04-15T01:02:20;12.93;;;6.50;;
12663;SDS011;6396;58.490;15.528;2023-04-15T01:04:47;17.07;;;7.10;;
12663;SDS011;6396;58.490;15.528;2023-04-15T01:07:14;12.40;;;6.80;;
12663;SDS011;6396;58.490;15.528;2023-04-15T01:09:41;11.73;;;7.37;;
12663;SDS011;6396;58.490;15.528;2023-04-15T01:12:10;13.77;;;6.87;;
12663;SDS011;6396;58.490;15.528;2023-04-15T01:14:38;12.20;;;6.77;;
12663;SDS011;6396;58.490;15.528;2023-04-15T01:17:05;12.57;;;6.70;;
12663;SDS011;6396;58.490;15.528;2023-04-15T01:19:34;13.37;;;6.40;;
12663;SDS011;6396;58.490;15.528;2023-04-15T01:22:02;12.17;;;6.60;;
12663;SDS011;6396;58.490;15.528;2023-04-15T01:24:29;9.13;;;6.23;;
12663;SDS011;6396;58.490;15.528;2023-04-15T01:26:58;12.60;;;6.77;;
12663;SDS011;6396;58.490;15.528;2023-04-15T01:29:25;12.27;;;6.40;;
12663;SDS011;6396;58.490;15.528;2023-04-15T01:31:53;10.37;;;6.27;;
12663;SDS011;6396;58.490;15.528;2023-04-15T01:34:21;14.80;;;6.60;;
12663;SDS011;6396;58.490;15.528;2023-04-15T01:36:48;11.23;;;6.13;;
12663;SDS011;6396;58.490;15.528;2023-04-15T01:39:15;12.07;;;6.40;;
12663;SDS011;6396;58.490;15.528;2023-04-15T01:41:42;9.47;;;6.40;;
12663;SDS011;6396;58.490;15.528;2023-04-15T01:44:10;12.53;;;5.93;;
12663;SDS011;6396;58.490;15.528;2023-04-15T01:46:37;9.93;;;5.27;;
12663;SDS011;6396;58.490;15.528;2023-04-15T01:49:03;16.13;;;6.60;;
12663;SDS011;6396;58.490;15.528;2023-04-15T01:51:30;9.87;;;6.17;;
12663;SDS011;6396;58.490;15.528;2023-04-15T01:53:57;9.47;;;6.67;;
12663;SDS011;6396;58.490;15.528;2023-04-15T01:56:24;10.40;;;6.40;;
12663;SDS011;6396;58.490;15.528;2023-04-15T01:58:51;11.87;;;6.63;;
12663;SDS011;6396;58.490;15.528;2023-04-15T02:01:19;14.77;;;6.50;;
12663;SDS011;6396;58.490;15.528;2023-04-15T02:03:46;9.37;;;6.30;;
12663;SDS011;6396;58.490;15.528;2023-04-15T02:06:13;13.10;;;6.50;;
12663;SDS011;6396;58.490;15.528;2023-04-15T02:08:40;15.17;;;7.03;;
12663;SDS011;6396;58.490;15.528;2023-04-15T02:11:07;11.40;;;6.20;;
12663;SDS011;6396;58.490;15.528;2023-04-15T02:13:34;11.13;;;6.40;;
12663;SDS011;6396;58.490;15.528;2023-04-15T02:16:01;9.63;;;6.13;;
12663;SDS011;6396;58.490;15.528;2023-04-15T02:18:29;9.97;;;6.30;;
12663;SDS011;6396;58.490;15.528;2023-04-15T02:20:56;11.63;;;7.00;;
12663;SDS011;6396;58.490;15.528;2023-04-15T02:23:23;11.80;;;6.27;;
12663;SDS011;6396;58.490;15.528;2023-04-15T02:25:50;12.03;;;6.10;;
12663;SDS011;6396;58.490;15.528;2023-04-15T02:28:16;13.70;;;6.17;;
12663;SDS011;6396;58.490;15.528;2023-04-15T02:30:46;10.67;;;6.10;;
12663;SDS011;6396;58.490;15.528;2023-04-15T02:33:13;10.80;;;6.20;;
12663;SDS011;6396;58.490;15.528;2023-04-15T02:35:42;12.33;;;7.10;;
12663;SDS011;6396;58.490;15.528;2023-04-15T02:38:09;9.70;;;5.50;;
12663;SDS011;6396;58.490;15.528;2023-04-15T02:40:36;8.03;;;6.23;;
12663;SDS011;6396;58.490;15.528;2023-04-15T02:43:03;12.87;;;6.17;;
12663;SDS011;6396;58.490;15.528;2023-04-15T02:45:31;9.77;;;6.13;;
12663;SDS011;6396;58.490;15.528;2023-04-15T02:47:57;11.23;;;5.47;;
12663;SDS011;6396;58.490;15.528;2023-04-15T02:50:27;11.47;;;5.77;;
12663;SDS011;6396;58.490;15.528;2023-04-15T02:52:57;12.40;;;6.00;;
12663;SDS011;6396;58.490;15.528;2023-04-15T02:55:25;11.93;;;5.50;;
12663;SDS011;6396;58.490;15.528;2023-04-15T02:57:52;9.73;;;5.83;;
12663;SDS011;6396;58.490;15.528;2023-04-15T03:00:18;12.07;;;5.57;;
12663;SDS011;6396;58.490;15.528;2023-04-15T03:02:45;10.90;;;6.53;;
12663;SDS011;6396;58.490;15.528;2023-04-15T03:05:16;9.60;;;5.93;;
12663;SDS011;6396;58.490;15.528;2023-04-15T03:07:43;11.63;;;6.13;;
12663;SDS011;6396;58.490;15.528;2023-04-15T03:10:11;9.57;;;5.80;;
12663;SDS011;6396;58.490;15.528;2023-04-15T03:12:38;13.63;;;5.90;;
12663;SDS011;6396;58.490;15.528;2023-04-15T03:15:05;10.90;;;6.10;;
12663;SDS011;6396;58.490;15.528;2023-04-15T03:17:32;11.47;;;5.97;;
12663;SDS011;6396;58.490;15.528;2023-04-15T03:20:00;9.60;;;5.37;;
12663;SDS011;6396;58.490;15.528;2023-04-15T03:22:27;10.50;;;5.47;;
12663;SDS011;6396;58.490;15.528;2023-04-15T03:24:54;12.50;;;6.00;;
12663;SDS011;6396;58.490;15.528;2023-04-15T03:27:22;12.40;;;5.70;;
12663;SDS011;6396;58.490;15.528;2023-04-15T03:29:49;11.50;;;5.80;;
12663;SDS011;6396;58.490;15.528;2023-04-15T03:32:15;10.73;;;5.67;;
12663;SDS011;6396;58.490;15.528;2023-04-15T03:34:42;9.17;;;5.47;;
12663;SDS011;6396;58.490;15.528;2023-04-15T03:37:09;8.00;;;5.47;;
12663;SDS011;6396;58.490;15.528;2023-04-15T03:39:36;10.50;;;6.23;;
12663;SDS011;6396;58.490;15.528;2023-04-15T03:42:03;8.73;;;5.67;;
12663;SDS011;6396;58.490;15.528;2023-04-15T03:44:31;10.57;;;5.50;;
12663;SDS011;6396;58.490;15.528;2023-04-15T03:46:58;12.40;;;6.07;;
12663;SDS011;6396;58.490;15.528;2023-04-15T03:49:24;10.37;;;5.30;;
12663;SDS011;6396;58.490;15.528;2023-04-15T03:51:51;11.20;;;5.60;;
12663;SDS011;6396;58.490;15.528;2023-04-15T03:54:18;10.27;;;5.43;;
12663;SDS011;6396;58.490;15.528;2023-04-15T03:56:44;6.73;;;4.77;;
12663;SDS011;6396;58.490;15.528;2023-04-15T03:59:11;11.43;;;5.13;;
12663;SDS011;6396;58.490;15.528;2023-04-15T04:01:43;9.97;;;5.10;;
12663;SDS011;6396;58.490;15.528;2023-04-15T04:04:09;11.53;;;5.73;;
12663;SDS011;6396;58.490;15.528;2023-04-15T04:06:36;10.33;;;5.20;;
12663;SDS011;6396;58.490;15.528;2023-04-15T04:09:03;9.27;;;5.00;;
12663;SDS011;6396;58.490;15.528;2023-04-15T04:11:29;9.93;;;4.37;;
12663;SDS011;6396;58.490;15.528;2023-04-15T04:13:57;8.97;;;4.80;;
12663;SDS011;6396;58.490;15.528;2023-04-15T04:16:24;6.27;;;4.53;;
12663;SDS011;6396;58.490;15.528;2023-04-15T04:18:52;8.50;;;4.87;;
12663;SDS011;6396;58.490;15.528;2023-04-15T04:21:18;7.07;;;4.90;;
12663;SDS011;6396;58.490;15.528;2023-04-15T04:23:45;8.80;;;4.97;;
12663;SDS011;6396;58.490;15.528;2023-04-15T04:26:12;10.50;;;5.20;;
12663;SDS011;6396;58.490;15.528;2023-04-15T04:28:39;10.53;;;5.67;;
12663;SDS011;6396;58.490;15.528;2023-04-15T04:31:06;9.23;;;5.17;;
12663;SDS011;6396;58.490;15.528;2023-04-15T04:33:32;8.50;;;4.93;;
12663;SDS011;6396;58.490;15.528;2023-04-15T04:36:01;8.17;;;5.20;;
12663;SDS011;6396;58.490;15.528;2023-04-15T04:38:27;10.10;;;5.20;;
12663;SDS011;6396;58.490;15.528;2023-04-15T04:40:54;9.63;;;4.57;;
12663;SDS011;6396;58.490;15.528;2023-04-15T04:43:21;9.40;;;4.57;;
12663;SDS011;6396;58.490;15.528;2023-04-15T04:45:48;6.87;;;4.93;;
12663;SDS011;6396;58.490;15.528;2023-04-15T04:48:14;10.27;;;5.30;;
12663;SDS011;6396;58.490;15.528;2023-04-15T04:50:41;8.57;;;5.37;;
12663;SDS011;6396;58.490;15.528;2023-04-15T04:53:10;10.83;;;5.23;;
12663;SDS011;6396;58.490;15.528;2023-04-15T04:55:37;7.07;;;4.93;;
12663;SDS011;6396;58.490;15.528;2023-04-15T04:58:03;11.70;;;5.63;;
12663;SDS011;6396;58.490;15.528;2023-04-15T05:00:33;9.10;;;4.73;;
12663;SDS011;6396;58.490;15.528;2023-04-15T05:03:01;6.77;;;4.93;;
12663;SDS011;6396;58.490;15.528;2023-04-15T05:05:29;10.03;;;4.93;;
12663;SDS011;6396;58.490;15.528;2023-04-15T05:07:56;9.30;;;5.30;;
12663;SDS011;6396;58.490;15.528;2023-04-15T05:10:24;8.00;;;4.77;;
12663;SDS011;6396;58.490;15.528;2023-04-15T05:12:51;8.33;;;4.80;;
12663;SDS011;6396;58.490;15.528;2023-04-15T05:15:17;8.63;;;4.50;;
12663;SDS011;6396;58.490;15.528;2023-04-15T05:17:45;6.63;;;4.43;;
12663;SDS011;6396;58.490;15.528;2023-04-15T05:20:12;8.23;;;4.50;;
12663;SDS011;6396;58.490;15.528;2023-04-15T05:22:38;9.93;;;4.50;;
12663;SDS011;6396;58.490;15.528;2023-04-15T05:25:06;7.70;;;4.33;;
12663;SDS011;6396;58.490;15.528;2023-04-15T05:27:35;9.10;;;5.07;;
12663;SDS011;6396;58.490;15.528;2023-04-15T05:30:02;9.87;;;4.73;;
12663;SDS011;6396;58.490;15.528;2023-04-15T05:32:29;8.13;;;4.93;;
12663;SDS011;6396;58.490;15.528;2023-04-15T05:34:56;10.13;;;5.00;;
12663;SDS011;6396;58.490;15.528;2023-04-15T05:37:23;8.60;;;4.30;;
12663;SDS011;6396;58.490;15.528;2023-04-15T05:39:50;6.07;;;4.30;;
12663;SDS011;6396;58.490;15.528;2023-04-15T05:42:16;8.27;;;4.73;;
12663;SDS011;6396;58.490;15.528;2023-04-15T05:44:45;6.80;;;4.53;;
12663;SDS011;6396;58.490;15.528;2023-04-15T05:47:11;8.23;;;4.27;;
12663;SDS011;6396;58.490;15.528;2023-04-15T05:49:38;9.57;;;4.73;;
12663;SDS011;6396;58.490;15.528;2023-04-15T05:52:05;7.77;;;4.47;;
12663;SDS011;6396;58.490;15.528;2023-04-15T05:54:32;5.27;;;3.70;;
12663;SDS011;6396;58.490;15.528;2023-04-15T05:56:58;10.33;;;4.67;;
12663;SDS011;6396;58.490;15.528;2023-04-15T05:59:25;6.50;;;4.70;;
12663;SDS011;6396;58.490;15.528;2023-04-15T06:01:54;8.23;;;4.57;;
12663;SDS011;6396;58.490;15.528;2023-04-15T06:04:21;9.10;;;5.07;;
12663;SDS011;6396;58.490;15.528;2023-04-15T06:06:48;7.67;;;4.57;;
12663;SDS011;6396;58.490;15.528;2023-04-15T06:09:14;9.10;;;4.17;;
12663;SDS011;6396;58.490;15.528;2023-04-15T06:11:41;6.63;;;4.17;;
12663;SDS011;6396;58.490;15.528;2023-04-15T06:14:08;9.60;;;4.83;;
12663;SDS011;6396;58.490;15.528;2023-04-15T06:16:35;7.60;;;4.27;;
12663;SDS011;6396;58.490;15.528;2023-04-15T06:19:03;9.50;;;4.53;;
12663;SDS011;6396;58.490;15.528;2023-04-15T06:21:30;7.13;;;4.50;;
12663;SDS011;6396;58.490;15.528;2023-04-15T06:23:57;11.50;;;5.03;;
12663;SDS011;6396;58.490;15.528;2023-04-15T06:26:25;9.63;;;5.00;;
12663;SDS011;6396;58.490;15.528;2023-04-15T06:28:52;7.00;;;4.63;;
12663;SDS011;6396;58.490;15.528;2023-04-15T06:31:19;8.50;;;4.70;;
12663;SDS011;6396;58.490;15.528;2023-04-15T06:33:46;8.47;;;5.20;;
12663;SDS011;6396;58.490;15.528;2023-04-15T06:36:14;8.17;;;4.77;;
12663;SDS011;6396;58.490;15.528;2023-04-15T06:38:41;6.43;;;4.70;;
12663;SDS011;6396;58.490;15.528;2023-04-15T06:41:08;6.97;;;4.73;;
12663;SDS011;6396;58.490;15.528;2023-04-15T06:43:35;10.53;;;4.87;;
12663;SDS011;6396;58.490;15.528;2023-04-15T06:46:02;7.47;;;4.67;;
12663;SDS011;6396;58.490;15.528;2023-04-15T06:48:28;7.07;;;4.80;;
12663;SDS011;6396;58.490;15.528;2023-04-15T06:50:55;6.07;;;4.00;;
12663;SDS011;6396;58.490;15.528;2023-04-15T06:53:24;7.77;;;4.80;;
12663;SDS011;6396;58.490;15.528;2023-04-15T06:55:52;10.13;;;4.53;;
12663;SDS011;6396;58.490;15.528;2023-04-15T06:58:19;8.07;;;4.57;;
12663;SDS011;6396;58.490;15.528;2023-04-15T07:00:45;7.03;;;4.50;;
12663;SDS011;6396;58.490;15.528;2023-04-15T07:03:13;8.67;;;4.60;;
12663;SDS011;6396;58.490;15.528;2023-04-15T07:05:40;8.50;;;5.10;;
12663;SDS011;6396;58.490;15.528;2023-04-15T07:08:07;8.13;;;4.77;;
12663;SDS011;6396;58.490;15.528;2023-04-15T07:10:35;9.43;;;4.60;;
12663;SDS011;6396;58.490;15.528;2023-04-15T07:13:02;7.77;;;4.60;;
12663;SDS011;6396;58.490;15.528;2023-04-15T07:15:29;10.53;;;5.20;;
12663;SDS011;6396;58.490;15.528;2023-04-15T07:17:56;9.73;;;4.73;;
12663;SDS011;6396;58.490;15.528;2023-04-15T07:20:23;9.20;;;5.43;;
12663;SDS011;6396;58.490;15.528;2023-04-15T07:22:49;7.50;;;4.87;;
12663;SDS011;6396;58.490;15.528;2023-04-15T07:25:17;7.20;;;5.00;;
12663;SDS011;6396;58.490;15.528;2023-04-15T07:27:45;8.23;;;4.97;;
12663;SDS011;6396;58.490;15.528;2023-04-15T07:30:12;7.50;;;5.40;;
12663;SDS011;6396;58.490;15.528;2023-04-15T07:32:39;9.47;;;4.77;;
12663;SDS011;6396;58.490;15.528;2023-04-15T07:35:07;6.37;;;4.67;;
12663;SDS011;6396;58.490;15.528;2023-04-15T07:37:34;12.73;;;5.27;;
12663;SDS011;6396;58.490;15.528;2023-04-15T07:40:01;6.33;;;4.67;;
12663;SDS011;6396;58.490;15.528;2023-04-15T07:42:29;10.20;;;6.03;;
12663;SDS011;6396;58.490;15.528;2023-04-15T07:44:57;7.97;;;5.07;;
12663;SDS011;6396;58.490;15.528;2023-04-15T07:47:24;8.97;;;5.00;;
12663;SDS011;6396;58.490;15.528;2023-04-15T07:49:51;8.27;;;4.97;;
12663;SDS011;6396;58.490;15.528;2023-04-15T07:52:18;7.90;;;5.20;;
12663;SDS011;6396;58.490;15.528;2023-04-15T07:54:45;8.17;;;5.20;;
12663;SDS011;6396;58.490;15.528;2023-04-15T07:57:11;10.27;;;5.13;;
12663;SDS011;6396;58.490;15.528;2023-04-15T07:59:38;9.00;;;4.90;;
12663;SDS011;6396;58.490;15.528;2023-04-15T08:02:07;9.20;;;4.70;;
12663;SDS011;6396;58.490;15.528;2023-04-15T08:04:34;7.73;;;4.57;;
12663;SDS011;6396;58.490;15.528;2023-04-15T08:07:02;7.80;;;4.90;;
12663;SDS011;6396;58.490;15.528;2023-04-15T08:09:30;9.60;;;5.47;;
12663;SDS011;6396;58.490;15.528;2023-04-15T08:11:57;9.47;;;4.43;;
12663;SDS011;6396;58.490;15.528;2023-04-15T08:14:23;8.70;;;5.03;;
12663;SDS011;6396;58.490;15.528;2023-04-15T08:16:50;7.20;;;4.50;;
12663;SDS011;6396;58.490;15.528;2023-04-15T08:19:19;6.43;;;4.30;;
12663;SDS011;6396;58.490;15.528;2023-04-15T08:21:45;7.20;;;4.77;;
12663;SDS011;6396;58.490;15.528;2023-04-15T08:24:12;8.20;;;4.90;;
12663;SDS011;6396;58.490;15.528;2023-04-15T08:26:40;6.80;;;4.50;;
12663;SDS011;6396;58.490;15.528;2023-04-15T08:29:07;7.53;;;4.73;;
12663;SDS011;6396;58.490;15.528;2023-04-15T08:31:34;6.63;;;4.40;;
12663;SDS011;6396;58.490;15.528;2023-04-15T08:34:01;8.27;;;4.60;;
12663;SDS011;6396;58.490;15.528;2023-04-15T08:36:29;5.83;;;4.30;;
12663;SDS011;6396;58.490;15.528;2023-04-15T08:38:56;4.47;;;4.00;;
12663;SDS011;6396;58.490;15.528;2023-04-15T08:41:25;5.00;;;3.73;;
12663;SDS011;6396;58.490;15.528;2023-04-15T08:43:56;6.93;;;4.70;;
12663;SDS011;6396;58.490;15.528;2023-04-15T08:46:25;6.00;;;4.07;;
12663;SDS011;6396;58.490;15.528;2023-04-15T08:48:53;5.17;;;3.87;;
12663;SDS011;6396;58.490;15.528;2023-04-15T08:51:23;5.83;;;3.80;;
12663;SDS011;6396;58.490;15.528;2023-04-15T08:53:52;6.50;;;4.40;;
12663;SDS011;6396;58.490;15.528;2023-04-15T08:56:20;8.60;;;4.47;;
12663;SDS011;6396;58.490;15.528;2023-04-15T08:58:51;5.63;;;4.23;;
12663;SDS011;6396;58.490;15.528;2023-04-15T09:01:18;7.33;;;4.47;;
12663;SDS011;6396;58.490;15.528;2023-04-15T09:03:46;7.53;;;4.10;;
12663;SDS011;6396;58.490;15.528;2023-04-15T09:06:15;6.20;;;4.30;;
12663;SDS011;6396;58.490;15.528;2023-04-15T09:08:52;4.60;;;4.17;;
12663;SDS011;6396;58.490;15.528;2023-04-15T09:11:20;6.77;;;4.30;;
12663;SDS011;6396;58.490;15.528;2023-04-15T09:13:47;7.83;;;4.80;;
12663;SDS011;6396;58.490;15.528;2023-04-15T09:16:14;4.67;;;3.80;;
12663;SDS011;6396;58.490;15.528;2023-04-15T09:18:41;5.97;;;4.87;;
12663;SDS011;6396;58.490;15.528;2023-04-15T09:21:09;5.67;;;4.30;;
12663;SDS011;6396;58.490;15.528;2023-04-15T09:23:37;7.67;;;4.80;;
12663;SDS011;6396;58.490;15.528;2023-04-15T09:26:06;5.80;;;4.07;;
12663;SDS011;6396;58.490;15.528;2023-04-15T09:28:40;4.83;;;4.10;;
12663;SDS011;6396;58.490;15.528;2023-04-15T09:31:10;6.37;;;4.67;;
12663;SDS011;6396;58.490;15.528;2023-04-15T09:33:52;5.83;;;4.23;;
12663;SDS011;6396;58.490;15.528;2023-04-15T09:36:20;5.50;;;4.20;;
12663;SDS011;6396;58.490;15.528;2023-04-15T09:38:53;4.53;;;3.83;;
12663;SDS011;6396;58.490;15.528;2023-04-15T09:41:22;6.27;;;3.97;;
12663;SDS011;6396;58.490;15.528;2023-04-15T09:43:49;6.00;;;4.70;;
12663;SDS011;6396;58.490;15.528;2023-04-15T09:46:16;6.77;;;4.20;;
12663;SDS011;6396;58.490;15.528;2023-04-15T09:48:43;6.37;;;4.23;;
12663;SDS011;6396;58.490;15.528;2023-04-15T09:51:10;6.23;;;4.10;;
12663;SDS011;6396;58.490;15.528;2023-04-15T09:53:36;6.80;;;4.70;;
12663;SDS011;6396;58.490;15.528;2023-04-15T09:56:03;7.93;;;4.90;;
12663;SDS011;6396;58.490;15.528;2023-04-15T09:58:34;7.20;;;4.00;;
12663;SDS011;6396;58.490;15.528;2023-04-15T10:01:03;8.37;;;4.10;;
12663;SDS011;6396;58.490;15.528;2023-04-15T10:03:32;6.03;;;4.77;;
12663;SDS011;6396;58.490;15.528;2023-04-15T10:06:01;5.37;;;3.87;;
12663;SDS011;6396;58.490;15.528;2023-04-15T10:08:30;5.03;;;4.27;;
12663;SDS011;6396;58.490;15.528;2023-04-15T10:10:59;5.30;;;4.10;;
12663;SDS011;6396;58.490;15.528;2023-04-15T10:13:28;5.90;;;4.00;;
12663;SDS011;6396;58.490;15.528;2023-04-15T10:16:03;4.87;;;3.93;;
12663;SDS011;6396;58.490;15.528;2023-04-15T10:18:33;5.60;;;4.00;;
12663;SDS011;6396;58.490;15.528;2023-04-15T10:21:02;7.27;;;4.40;;
12663;SDS011;6396;58.490;15.528;2023-04-15T10:23:34;6.67;;;4.50;;
12663;SDS011;6396;58.490;15.528;2023-04-15T10:26:05;5.43;;;4.03;;
12663;SDS011;6396;58.490;15.528;2023-04-15T10:28:36;5.87;;;4.07;;
12663;SDS011;6396;58.490;15.528;2023-04-15T10:31:05;5.10;;;4.30;;
12663;SDS011;6396;58.490;15.528;2023-04-15T10:33:33;7.47;;;3.63;;
12663;SDS011;6396;58.490;15.528;2023-04-15T10:36:03;5.07;;;4.10;;
12663;SDS011;6396;58.490;15.528;2023-04-15T10:38:30;5.30;;;4.20;;
12663;SDS011;6396;58.490;15.528;2023-04-15T10:41:11;8.13;;;4.37;;
12663;SDS011;6396;58.490;15.528;2023-04-15T10:43:44;6.17;;;4.47;;
12663;SDS011;6396;58.490;15.528;2023-04-15T10:46:17;5.50;;;4.13;;
12663;SDS011;6396;58.490;15.528;2023-04-15T10:48:48;5.37;;;4.40;;
12663;SDS011;6396;58.490;15.528;2023-04-15T10:51:24;6.20;;;4.17;;
12663;SDS011;6396;58.490;15.528;2023-04-15T10:53:55;4.87;;;4.20;;
12663;SDS011;6396;58.490;15.528;2023-04-15T10:56:22;5.60;;;3.67;;
12663;SDS011;6396;58.490;15.528;2023-04-15T10:58:49;4.90;;;4.23;;
12663;SDS011;6396;58.490;15.528;2023-04-15T11:01:19;5.47;;;3.90;;
12663;SDS011;6396;58.490;15.528;2023-04-15T11:03:48;4.83;;;3.70;;
12663;SDS011;6396;58.490;15.528;2023-04-15T11:06:16;8.57;;;4.30;;
12663;SDS011;6396;58.490;15.528;2023-04-15T11:08:52;6.00;;;4.13;;
12663;SDS011;6396;58.490;15.528;2023-04-15T11:11:21;5.57;;;4.13;;
12663;SDS011;6396;58.490;15.528;2023-04-15T11:13:48;6.00;;;4.73;;
12663;SDS011;6396;58.490;15.528;2023-04-15T11:16:17;5.07;;;4.00;;
12663;SDS011;6396;58.490;15.528;2023-04-15T11:18:53;5.53;;;3.87;;
12663;SDS011;6396;58.490;15.528;2023-04-15T11:21:23;5.33;;;3.80;;
12663;SDS011;6396;58.490;15.528;2023-04-15T11:23:50;5.93;;;4.10;;
12663;SDS011;6396;58.490;15.528;2023-04-15T11:26:17;4.70;;;3.73;;
12663;SDS011;6396;58.490;15.528;2023-04-15T11:28:44;4.57;;;4.17;;
12663;SDS011;6396;58.490;15.528;2023-04-15T11:31:12;6.07;;;4.43;;
12663;SDS011;6396;58.490;15.528;2023-04-15T11:33:47;4.83;;;3.67;;
12663;SDS011;6396;58.490;15.528;2023-04-15T11:36:23;6.03;;;3.87;;
12663;SDS011;6396;58.490;15.528;2023-04-15T11:38:51;4.30;;;3.90;;
12663;SDS011;6396;58.490;15.528;2023-04-15T11:41:19;4.07;;;3.67;;
12663;SDS011;6396;58.490;15.528;2023-04-15T11:43:47;6.43;;;4.27;;
12663;SDS011;6396;58.490;15.528;2023-04-15T11:46:14;7.27;;;4.37;;
12663;SDS011;6396;58.490;15.528;2023-04-15T11:48:42;6.50;;;4.30;;
12663;SDS011;6396;58.490;15.528;2023-04-15T11:51:11;4.50;;;4.10;;
12663;SDS011;6396;58.490;15.528;2023-04-15T11:53:39;6.70;;;4.27;;
12663;SDS011;6396;58.490;15.528;2023-04-15T11:56:07;5.57;;;3.90;;
12663;SDS011;6396;58.490;15.528;2023-04-15T11:58:36;4.00;;;3.60;;
12663;SDS011;6396;58.490;15.528;2023-04-15T12:01:04;5.57;;;3.80;;
12663;SDS011;6396;58.490;15.528;2023-04-15T12:03:36;4.33;;;3.63;;
12663;SDS011;6396;58.490;15.528;2023-04-15T12:06:08;5.40;;;3.93;;
12663;SDS011;6396;58.490;15.528;2023-04-15T12:08:56;4.13;;;3.70;;
12663;SDS011;6396;58.490;15.528;2023-04-15T12:11:44;6.73;;;4.37;;
12663;SDS011;6396;58.490;15.528;2023-04-15T12:14:20;4.10;;;3.70;;
12663;SDS011;6396;58.490;15.528;2023-04-15T12:16:52;6.17;;;3.97;;
12663;SDS011;6396;58.490;15.528;2023-04-15T12:19:26;5.57;;;4.10;;
12663;SDS011;6396;58.490;15.528;2023-04-15T12:21:58;7.10;;;4.00;;
12663;SDS011;6396;58.490;15.528;2023-04-15T12:24:26;5.63;;;4.50;;
12663;SDS011;6396;58.490;15.528;2023-04-15T12:26:56;4.43;;;3.80;;
12663;SDS011;6396;58.490;15.528;2023-04-15T12:29:27;7.53;;;4.43;;
12663;SDS011;6396;58.490;15.528;2023-04-15T12:31:57;5.33;;;4.17;;
12663;SDS011;6396;58.490;15.528;2023-04-15T12:34:31;5.50;;;4.10;;
12663;SDS011;6396;58.490;15.528;2023-04-15T12:37:01;5.60;;;4.60;;
12663;SDS011;6396;58.490;15.528;2023-04-15T12:39:30;4.60;;;4.20;;
12663;SDS011;6396;58.490;15.528;2023-04-15T12:42:00;5.10;;;4.60;;
12663;SDS011;6396;58.490;15.528;2023-04-15T12:44:27;7.53;;;4.00;;
12663;SDS011;6396;58.490;15.528;2023-04-15T12:46:54;5.00;;;4.33;;
12663;SDS011;6396;58.490;15.528;2023-04-15T12:49:22;5.40;;;4.10;;
12663;SDS011;6396;58.490;15.528;2023-04-15T12:51:50;8.20;;;4.57;;
12663;SDS011;6396;58.490;15.528;2023-04-15T12:54:19;8.43;;;4.97;;
12663;SDS011;6396;58.490;15.528;2023-04-15T12:56:47;6.87;;;4.87;;
12663;SDS011;6396;58.490;15.528;2023-04-15T12:59:16;8.17;;;4.60;;
12663;SDS011;6396;58.490;15.528;2023-04-15T13:01:43;6.77;;;4.63;;
12663;SDS011;6396;58.490;15.528;2023-04-15T13:04:10;6.67;;;4.80;;
12663;SDS011;6396;58.490;15.528;2023-04-15T13:06:37;5.27;;;4.50;;
12663;SDS011;6396;58.490;15.528;2023-04-15T13:09:04;6.03;;;4.70;;
12663;SDS011;6396;58.490;15.528;2023-04-15T13:11:32;5.87;;;4.60;;
12663;SDS011;6396;58.490;15.528;2023-04-15T13:14:01;6.10;;;4.63;;
12663;SDS011;6396;58.490;15.528;2023-04-15T13:16:29;6.57;;;4.43;;
12663;SDS011;6396;58.490;15.528;2023-04-15T13:18:56;5.20;;;4.27;;
12663;SDS011;6396;58.490;15.528;2023-04-15T13:21:23;5.97;;;4.80;;
12663;SDS011;6396;58.490;15.528;2023-04-15T13:23:51;6.70;;;4.70;;
12663;SDS011;6396;58.490;15.528;2023-04-15T13:26:18;5.73;;;4.73;;
12663;SDS011;6396;58.490;15.528;2023-04-15T13:28:46;5.27;;;4.47;;
12663;SDS011;6396;58.490;15.528;2023-04-15T13:31:13;6.17;;;5.00;;
12663;SDS011;6396;58.490;15.528;2023-04-15T13:33:41;5.97;;;5.20;;
12663;SDS011;6396;58.490;15.528;2023-04-15T13:36:08;6.20;;;5.30;;
12663;SDS011;6396;58.490;15.528;2023-04-15T13:38:35;6.93;;;4.87;;
12663;SDS011;6396;58.490;15.528;2023-04-15T13:41:02;5.23;;;4.63;;
12663;SDS011;6396;58.490;15.528;2023-04-15T13:43:29;7.63;;;5.17;;
12663;SDS011;6396;58.490;15.528;2023-04-15T13:45:59;6.07;;;5.40;;
12663;SDS011;6396;58.490;15.528;2023-04-15T13:48:25;6.57;;;5.47;;
12663;SDS011;6396;58.490;15.528;2023-04-15T13:50:53;6.43;;;5.30;;
12663;SDS011;6396;58.490;15.528;2023-04-15T13:53:20;6.83;;;5.27;;
12663;SDS011;6396;58.490;15.528;2023-04-15T13:55:47;7.87;;;5.40;;
12663;SDS011;6396;58.490;15.528;2023-04-15T13:58:14;8.10;;;5.37;;
12663;SDS011;6396;58.490;15.528;2023-04-15T14:00:41;6.47;;;5.33;;
12663;SDS011;6396;58.490;15.528;2023-04-15T14:03:10;7.10;;;5.23;;
12663;SDS011;6396;58.490;15.528;2023-04-15T14:05:37;5.50;;;4.90;;
12663;SDS011;6396;58.490;15.528;2023-04-15T14:08:04;5.80;;;4.93;;
12663;SDS011;6396;58.490;15.528;2023-04-15T14:10:30;7.33;;;5.57;;
12663;SDS011;6396;58.490;15.528;2023-04-15T14:12:57;7.87;;;4.83;;
12663;SDS011;6396;58.490;15.528;2023-04-15T14:15:25;6.53;;;4.37;;
12663;SDS011;6396;58.490;15.528;2023-04-15T14:17:51;6.07;;;5.40;;
12663;SDS011;6396;58.490;15.528;2023-04-15T14:20:21;7.40;;;5.43;;
12663;SDS011;6396;58.490;15.528;2023-04-15T14:22:47;6.70;;;5.40;;
12663;SDS011;6396;58.490;15.528;2023-04-15T14:25:14;8.73;;;5.63;;
12663;SDS011;6396;58.490;15.528;2023-04-15T14:27:41;6.00;;;5.40;;
12663;SDS011;6396;58.490;15.528;2023-04-15T14:30:08;6.23;;;5.17;;
12663;SDS011;6396;58.490;15.528;2023-04-15T14:32:36;6.40;;;5.70;;
12663;SDS011;6396;58.490;15.528;2023-04-15T14:35:02;6.07;;;5.20;;
12663;SDS011;6396;58.490;15.528;2023-04-15T14:37:31;6.67;;;5.03;;
12663;SDS011;6396;58.490;15.528;2023-04-15T14:40:00;8.10;;;5.00;;
12663;SDS011;6396;58.490;15.528;2023-04-15T14:42:29;5.70;;;5.20;;
12663;SDS011;6396;58.490;15.528;2023-04-15T14:44:56;5.83;;;4.60;;
12663;SDS011;6396;58.490;15.528;2023-04-15T14:47:24;5.57;;;5.07;;